Time;durP1;ratioP1;P1;durP2;ratioP2;P2;SDS_P1;SDS_P2;PMS_P1;PMS_P2;Temp;Humidity;BMP_temperature;BMP_pressure;BME280_temperature;BME280_humidity;BME280_pressure;Samples;Min_cycle;Max_cycle;Signal;HPM_P1;HPM_P2
2022/07/29 00:00:12;;;;;;;4.22;1.40;;;17.10;99.90;;;;;;4976551;28;20105;-67
2022/07/29 00:02:37;;;;;;;3.58;1.50;;;17.00;99.90;;;;;;4975935;28;20048;-68
2022/07/29 00:05:04;;;;;;;4.85;1.50;;;17.00;99.90;;;;;;4975958;28;20106;-68
2022/07/29 00:07:30;;;;;;;3.90;2.03;;;17.00;99.90;;;;;;4975932;28;20043;-71
2022/07/29 00:09:55;;;;;;;2.85;1.65;;;17.00;99.90;;;;;;4974118;28;20029;-70
2022/07/29 00:12:23;;;;;;;3.75;1.50;;;17.00;99.90;;;;;;4975846;28;20035;-70
2022/07/29 00:14:48;;;;;;;5.20;1.73;;;17.00;99.90;;;;;;4975491;28;20151;-69
2022/07/29 00:17:14;;;;;;;5.30;1.73;;;17.00;99.90;;;;;;4976296;28;20055;-71
2022/07/29 00:19:40;;;;;;;2.30;1.45;;;17.00;99.90;;;;;;4975850;28;20019;-68
2022/07/29 00:22:05;;;;;;;4.07;1.98;;;17.00;99.90;;;;;;4975804;28;20078;-68
2022/07/29 00:24:31;;;;;;;7.00;1.70;;;17.00;99.90;;;;;;4975778;28;20449;-68
2022/07/29 00:26:56;;;;;;;2.42;1.63;;;17.00;99.90;;;;;;4975443;28;20039;-67
2022/07/29 00:29:22;;;;;;;6.80;1.83;;;17.00;99.90;;;;;;4975719;28;20068;-71
2022/07/29 00:31:47;;;;;;;6.45;1.65;;;17.00;99.90;;;;;;4975529;28;20520;-69
2022/07/29 00:36:57;;;;;;;4.72;1.80;;;17.00;99.90;;;;;;4974998;28;20033;-67
2022/07/29 00:39:23;;;;;;;3.00;1.55;;;17.10;99.90;;;;;;4975368;28;20106;-69
2022/07/29 00:41:48;;;;;;;3.80;1.50;;;17.00;99.90;;;;;;4975085;28;20489;-67
2022/07/29 00:44:14;;;;;;;3.90;1.90;;;17.00;99.90;;;;;;4975406;28;20030;-67
2022/07/29 00:46:40;;;;;;;5.78;1.48;;;17.00;99.90;;;;;;4974981;28;20141;-67
2022/07/29 00:49:07;;;;;;;2.85;1.25;;;17.10;99.90;;;;;;4975429;28;20485;-67
2022/07/29 00:51:35;;;;;;;4.35;1.27;;;17.10;99.90;;;;;;4975268;28;20114;-67
2022/07/29 00:54:01;;;;;;;2.25;1.25;;;17.10;99.90;;;;;;4974831;28;20027;-70
2022/07/29 00:56:29;;;;;;;3.25;1.45;;;17.10;99.90;;;;;;4973805;28;20027;-67
2022/07/29 00:58:57;;;;;;;3.65;1.33;;;17.00;99.90;;;;;;4973447;28;20027;-67
2022/07/29 01:01:22;;;;;;;5.45;1.45;;;17.00;99.90;;;;;;4973573;28;20102;-68
2022/07/29 01:03:48;;;;;;;3.58;1.27;;;17.00;99.90;;;;;;4974914;28;20105;-68
2022/07/29 01:06:16;;;;;;;2.72;1.50;;;17.00;99.90;;;;;;4974389;28;20441;-68
2022/07/29 01:08:42;;;;;;;3.70;1.40;;;17.00;99.90;;;;;;4975184;28;20029;-69
2022/07/29 01:11:08;;;;;;;2.22;1.40;;;17.00;99.90;;;;;;4973537;28;20376;-69
2022/07/29 01:13:33;;;;;;;2.60;1.58;;;16.90;99.90;;;;;;4974709;28;20065;-68
2022/07/29 01:16:06;;;;;;;3.83;1.40;;;16.90;99.90;;;;;;4974969;28;20475;-68
2022/07/29 01:18:37;;;;;;;3.53;1.55;;;16.90;99.90;;;;;;4974659;28;20438;-70
2022/07/29 01:21:22;;;;;;;4.87;1.40;;;16.90;99.90;;;;;;4974664;28;20023;-67
2022/07/29 01:23:56;;;;;;;2.28;1.45;;;16.80;99.90;;;;;;4974598;28;20018;-67
2022/07/29 01:27:13;;;;;;;5.30;1.60;;;16.80;99.90;;;;;;4973818;28;20086;-68
2022/07/29 01:29:43;;;;;;;2.13;1.30;;;16.80;99.90;;;;;;4983820;28;20043;-67
2022/07/29 01:32:21;;;;;;;4.10;1.42;;;16.80;99.90;;;;;;4974415;28;20460;-71
2022/07/29 01:35:01;;;;;;;2.42;1.50;;;16.80;99.90;;;;;;4974194;28;20453;-70
2022/07/29 01:37:39;;;;;;;3.75;1.50;;;16.80;99.90;;;;;;4974085;28;20054;-68
2022/07/29 01:40:09;;;;;;;4.80;1.63;;;16.70;99.90;;;;;;4974376;28;20042;-68
2022/07/29 01:42:56;;;;;;;4.03;1.70;;;16.70;99.90;;;;;;4974319;28;20047;-71
2022/07/29 01:45:31;;;;;;;3.40;1.35;;;16.70;99.90;;;;;;4974400;28;20018;-69
2022/07/29 01:48:19;;;;;;;4.70;1.50;;;16.70;99.90;;;;;;4973621;28;20050;-68
2022/07/29 01:50:58;;;;;;;2.95;1.65;;;16.70;99.90;;;;;;4973974;28;20026;-67
2022/07/29 01:53:47;;;;;;;3.85;1.73;;;16.70;99.90;;;;;;4972697;28;20101;-67
2022/07/29 01:56:14;;;;;;;5.53;1.73;;;16.70;99.90;;;;;;4974307;28;20437;-66
2022/07/29 01:58:43;;;;;;;5.70;2.00;;;16.70;99.90;;;;;;4974396;28;20457;-67
2022/07/29 02:01:10;;;;;;;6.00;1.63;;;16.70;99.90;;;;;;4973905;28;20401;-67
2022/07/29 02:03:37;;;;;;;5.38;1.85;;;16.70;99.90;;;;;;4974222;28;20063;-66
2022/07/29 02:06:05;;;;;;;3.95;1.80;;;16.70;99.90;;;;;;4973952;28;20083;-67
2022/07/29 02:08:32;;;;;;;2.35;1.50;;;16.70;99.90;;;;;;4973357;28;20078;-70
2022/07/29 02:11:00;;;;;;;7.75;2.00;;;16.70;99.90;;;;;;4974002;28;20026;-69
2022/07/29 02:13:28;;;;;;;4.60;1.92;;;16.70;99.90;;;;;;4973861;28;20058;-67
2022/07/29 02:15:57;;;;;;;4.00;1.70;;;16.70;99.90;;;;;;4973876;28;20024;-70
2022/07/29 02:18:25;;;;;;;4.55;1.45;;;16.80;99.90;;;;;;4973397;28;20106;-72
2022/07/29 02:20:54;;;;;;;3.40;1.70;;;16.70;99.90;;;;;;4973893;28;20109;-67
2022/07/29 02:23:22;;;;;;;3.00;1.50;;;16.70;99.90;;;;;;4973435;28;20077;-67
2022/07/29 02:25:51;;;;;;;4.70;1.80;;;16.70;99.90;;;;;;4973381;28;20195;-70
2022/07/29 02:28:18;;;;;;;2.78;1.55;;;16.70;99.90;;;;;;4973535;28;20022;-69
2022/07/29 02:30:44;;;;;;;6.47;1.80;;;16.70;99.90;;;;;;4973798;28;20026;-70
2022/07/29 02:33:13;;;;;;;8.88;1.98;;;16.70;99.90;;;;;;4973469;28;20054;-67
2022/07/29 02:35:40;;;;;;;3.45;1.90;;;16.70;99.90;;;;;;4973363;28;20023;-66
2022/07/29 02:40:53;;;;;;;5.82;2.00;;;16.70;99.90;;;;;;4973279;28;20066;-67
2022/07/29 02:43:20;;;;;;;3.85;2.10;;;16.70;99.90;;;;;;4973341;28;20109;-67
2022/07/29 02:45:51;;;;;;;3.97;2.10;;;16.70;99.90;;;;;;4973580;28;20023;-68
2022/07/29 02:48:18;;;;;;;7.22;2.05;;;16.60;99.90;;;;;;4973274;28;20512;-68
2022/07/29 02:50:57;;;;;;;5.72;2.08;;;16.60;99.90;;;;;;4973334;28;20027;-67
2022/07/29 02:53:26;;;;;;;5.95;2.10;;;16.60;99.90;;;;;;4972111;28;20066;-69
2022/07/29 02:55:58;;;;;;;5.10;2.17;;;16.60;99.90;;;;;;4973325;28;20026;-67
2022/07/29 02:58:28;;;;;;;;;;;16.60;99.90;;;;;;4973482;28;20027;-68
2022/07/29 03:00:56;;;;;;;6.93;2.35;;;16.60;99.90;;;;;;4973486;28;20201;-67
2022/07/29 03:03:25;;;;;;;2.72;2.10;;;16.50;99.90;;;;;;4973267;28;20122;-67
2022/07/29 03:05:57;;;;;;;5.85;2.35;;;16.50;99.90;;;;;;4973283;28;20062;-67
2022/07/29 03:08:23;;;;;;;5.03;2.17;;;16.40;99.90;;;;;;4971796;28;20093;-67
2022/07/29 03:10:51;;;;;;;5.93;2.10;;;16.50;99.90;;;;;;4972897;28;20394;-67
2022/07/29 03:13:17;;;;;;;5.80;2.58;;;16.40;99.90;;;;;;4971707;28;20026;-72
2022/07/29 03:15:47;;;;;;;5.15;1.95;;;16.40;99.90;;;;;;4971814;28;20314;-67
2022/07/29 03:18:14;;;;;;;6.30;2.20;;;16.40;99.90;;;;;;4973146;28;20034;-67
2022/07/29 03:20:40;;;;;;;4.53;2.25;;;16.40;99.90;;;;;;4973369;28;20019;-69
2022/07/29 03:23:06;;;;;;;7.28;2.53;;;16.30;99.90;;;;;;4973046;28;20034;-68
2022/07/29 03:25:31;;;;;;;5.53;2.45;;;16.30;99.90;;;;;;4972606;28;20027;-68
2022/07/29 03:27:57;;;;;;;6.82;2.60;;;16.30;99.90;;;;;;4972651;28;20042;-70
2022/07/29 03:30:23;;;;;;;3.78;2.28;;;16.20;99.90;;;;;;4972979;28;20034;-68
2022/07/29 03:32:50;;;;;;;3.33;2.03;;;16.20;99.90;;;;;;4971647;28;20026;-68
2022/07/29 03:35:19;;;;;;;7.22;2.28;;;16.20;99.90;;;;;;4972897;28;20102;-68
2022/07/29 03:37:44;;;;;;;5.18;2.78;;;16.10;99.90;;;;;;4972956;28;20109;-71
2022/07/29 03:40:13;;;;;;;5.57;3.03;;;16.10;99.90;;;;;;4971423;28;20166;-70
2022/07/29 03:42:42;;;;;;;4.53;2.75;;;16.00;99.90;;;;;;4971588;28;20031;-67
2022/07/29 03:45:12;;;;;;;6.18;2.80;;;16.00;99.90;;;;;;4972664;28;20031;-68
2022/07/29 03:47:42;;;;;;;6.03;2.63;;;16.00;99.90;;;;;;4972790;28;20069;-67
2022/07/29 03:50:11;;;;;;;5.28;2.05;;;15.90;99.90;;;;;;4976417;28;20027;-68
2022/07/29 03:52:37;;;;;;;5.47;2.92;;;15.90;99.90;;;;;;4976276;28;20045;-69
2022/07/29 03:55:03;;;;;;;3.95;2.75;;;15.90;99.90;;;;;;4974813;28;20125;-68
2022/07/29 03:57:31;;;;;;;5.05;2.92;;;15.80;99.90;;;;;;4976124;28;20053;-68
2022/07/29 03:59:57;;;;;;;6.95;3.00;;;15.80;99.90;;;;;;4976021;28;20477;-67
2022/07/29 04:02:25;;;;;;;8.52;3.13;;;15.80;99.90;;;;;;4974819;28;20019;-68
2022/07/29 04:04:51;;;;;;;6.93;3.22;;;15.70;99.90;;;;;;4976129;28;20038;-71
2022/07/29 04:07:16;;;;;;;6.47;3.28;;;15.70;99.90;;;;;;4975949;28;20038;-69
2022/07/29 04:09:42;;;;;;;6.97;2.97;;;15.70;99.90;;;;;;4976316;28;20109;-68
2022/07/29 04:12:08;;;;;;;7.00;3.17;;;15.60;99.90;;;;;;4975924;28;20027;-71
2022/07/29 04:14:34;;;;;;;5.03;3.00;;;15.60;99.90;;;;;;4974481;28;20027;-68
2022/07/29 04:17:04;;;;;;;6.72;2.85;;;15.60;99.90;;;;;;4974580;28;20061;-70
2022/07/29 04:19:31;;;;;;;5.28;3.13;;;15.60;99.90;;;;;;4975359;28;20369;-70
2022/07/29 04:21:58;;;;;;;7.13;2.90;;;15.60;99.90;;;;;;4974020;28;20054;-69
2022/07/29 04:24:23;;;;;;;3.80;2.50;;;15.60;99.90;;;;;;4975952;28;20070;-68
2022/07/29 04:26:49;;;;;;;5.13;2.75;;;15.60;99.90;;;;;;4974096;28;20035;-67
2022/07/29 04:29:15;;;;;;;8.88;2.92;;;15.50;99.90;;;;;;4974250;28;20027;-68
2022/07/29 04:31:41;;;;;;;8.45;3.30;;;15.60;99.90;;;;;;4975250;28;20050;-67
2022/07/29 04:34:07;;;;;;;7.88;2.92;;;15.50;99.90;;;;;;4975876;28;20026;-69
2022/07/29 04:36:32;;;;;;;6.28;3.30;;;15.50;99.90;;;;;;4975023;28;20039;-67
2022/07/29 04:38:58;;;;;;;6.22;3.20;;;15.60;99.90;;;;;;4975457;28;20078;-67
2022/07/29 04:41:23;;;;;;;7.70;2.88;;;15.60;99.90;;;;;;4975428;28;20031;-70
2022/07/29 04:43:49;;;;;;;7.32;3.25;;;15.60;99.90;;;;;;4975273;28;20045;-69
2022/07/29 04:46:15;;;;;;;6.03;2.90;;;15.70;99.90;;;;;;4975061;28;20078;-67
2022/07/29 04:48:40;;;;;;;7.72;2.78;;;15.70;99.90;;;;;;4975403;28;20453;-66
2022/07/29 04:51:06;;;;;;;6.53;2.80;;;15.70;99.90;;;;;;4975313;28;20031;-67
2022/07/29 04:53:32;;;;;;;5.28;3.20;;;15.70;99.90;;;;;;4975140;28;20054;-68
2022/07/29 04:55:58;;;;;;;9.18;3.30;;;15.80;99.90;;;;;;4974682;28;20030;-67
2022/07/29 04:58:23;;;;;;;6.60;2.80;;;15.70;99.90;;;;;;4973812;28;20081;-70
2022/07/29 05:00:50;;;;;;;7.30;2.95;;;15.80;99.90;;;;;;4974979;28;20046;-71
2022/07/29 05:03:15;;;;;;;5.13;2.90;;;15.80;99.90;;;;;;4975119;28;20027;-70
2022/07/29 05:05:42;;;;;;;6.22;2.67;;;15.80;99.90;;;;;;4975143;28;20026;-69
2022/07/29 05:08:07;;;;;;;10.27;3.92;;;15.90;99.90;;;;;;4975311;28;20033;-68
2022/07/29 05:10:37;;;;;;;5.45;2.40;;;15.90;99.90;;;;;;4975165;28;20035;-68
2022/07/29 05:13:06;;;;;;;3.95;2.55;;;15.90;99.90;;;;;;4973730;28;20125;-70
2022/07/29 05:15:34;;;;;;;8.38;3.60;;;15.90;99.90;;;;;;4975042;28;20033;-66
2022/07/29 05:18:00;;;;;;;3.60;2.33;;;16.00;99.90;;;;;;4973590;28;20110;-68
2022/07/29 05:20:28;;;;;;;9.77;3.13;;;16.00;99.90;;;;;;4974994;28;20026;-68
2022/07/29 05:22:57;;;;;;;6.07;2.38;;;16.00;99.90;;;;;;4974858;28;20019;-68
2022/07/29 05:25:24;;;;;;;6.38;2.38;;;16.10;99.90;;;;;;4974917;28;20062;-67
2022/07/29 05:27:50;;;;;;;6.68;2.55;;;16.20;99.90;;;;;;4974521;28;20469;-67
2022/07/29 05:30:16;;;;;;;3.85;2.38;;;16.30;99.90;;;;;;4974463;28;20054;-67
2022/07/29 05:32:42;;;;;;;3.50;2.08;;;16.40;99.90;;;;;;4974324;28;20026;-68
2022/07/29 05:35:08;;;;;;;4.47;2.30;;;16.50;99.90;;;;;;4974730;28;20504;-68
2022/07/29 05:37:34;;;;;;;4.43;2.58;;;16.50;99.90;;;;;;4974326;28;20031;-69
2022/07/29 05:39:59;;;;;;;3.92;2.22;;;16.60;99.90;;;;;;4974587;28;20038;-71
2022/07/29 05:42:26;;;;;;;6.25;2.15;;;16.70;99.90;;;;;;4974500;28;20027;-67
2022/07/29 05:44:52;;;;;;;6.15;2.58;;;16.80;99.90;;;;;;4974592;28;20023;-67
2022/07/29 05:47:17;;;;;;;5.18;2.58;;;16.90;99.90;;;;;;4974090;28;20373;-67
2022/07/29 05:49:43;;;;;;;8.02;2.28;;;17.00;99.90;;;;;;4973715;28;20081;-67
2022/07/29 05:52:09;;;;;;;3.25;2.20;;;17.00;99.90;;;;;;4974497;28;20090;-72
2022/07/29 05:54:35;;;;;;;6.38;2.17;;;17.10;99.90;;;;;;4974545;28;20101;-69
2022/07/29 05:57:00;;;;;;;5.07;2.00;;;17.20;99.90;;;;;;4974376;28;20073;-70
2022/07/29 05:59:26;;;;;;;7.40;2.17;;;17.20;99.90;;;;;;4974258;28;20117;-67
2022/07/29 06:01:52;;;;;;;7.18;2.30;;;17.20;99.90;;;;;;4974519;28;20105;-66
2022/07/29 06:04:17;;;;;;;3.63;2.00;;;17.30;99.90;;;;;;4974105;28;20031;-67
2022/07/29 06:06:43;;;;;;;3.40;2.20;;;17.30;99.90;;;;;;4973755;28;20105;-69
2022/07/29 06:09:08;;;;;;;4.95;2.17;;;17.30;99.90;;;;;;4972719;28;20046;-67
2022/07/29 06:11:34;;;;;;;5.30;2.10;;;17.40;99.90;;;;;;4973585;28;20074;-68
2022/07/29 06:13:59;;;;;;;4.95;1.88;;;17.40;99.90;;;;;;4974027;28;20041;-68
2022/07/29 06:16:25;;;;;;;5.40;2.45;;;17.50;99.90;;;;;;4972475;28;20085;-67
2022/07/29 06:18:51;;;;;;;5.47;2.47;;;17.50;99.90;;;;;;4973662;28;20090;-71
2022/07/29 06:21:17;;;;;;;3.08;2.00;;;17.50;99.90;;;;;;4972730;28;20070;-71
2022/07/29 06:23:45;;;;;;;6.88;1.90;;;17.70;99.90;;;;;;4974095;28;20027;-68
2022/07/29 06:26:10;;;;;;;6.22;1.98;;;18.20;99.90;;;;;;4973925;28;20154;-67
2022/07/29 06:28:36;;;;;;;10.30;2.20;;;18.90;99.90;;;;;;4973773;28;20062;-67
2022/07/29 06:31:02;;;;;;;2.78;1.67;;;19.60;99.90;;;;;;4973660;28;20070;-70
2022/07/29 06:33:28;;;;;;;4.07;1.42;;;20.40;99.90;;;;;;4969111;28;20023;-72
2022/07/29 06:35:54;;;;;;;5.63;2.05;;;21.20;99.90;;;;;;4973239;28;20034;-68
2022/07/29 06:38:19;;;;;;;4.43;2.22;;;21.80;99.60;;;;;;4973515;28;20484;-70
2022/07/29 06:41:05;;;;;;;2.90;1.42;;;22.50;98.30;;;;;;4972942;28;20027;-71
2022/07/29 06:43:40;;;;;;;4.55;1.60;;;23.00;97.20;;;;;;4973414;28;20027;-72
2022/07/29 06:46:09;;;;;;;7.28;2.50;;;23.60;96.10;;;;;;4973603;28;20022;-66
2022/07/29 06:48:38;;;;;;;3.88;1.92;;;24.00;95.40;;;;;;4973536;28;20038;-70
2022/07/29 06:51:05;;;;;;;3.65;1.95;;;24.10;94.60;;;;;;4973649;28;20126;-70
2022/07/29 06:53:31;;;;;;;6.93;1.77;;;24.50;94.30;;;;;;4973671;28;20069;-70
2022/07/29 06:55:59;;;;;;;4.65;1.70;;;25.00;93.40;;;;;;4973456;28;20027;-66
2022/07/29 06:58:25;;;;;;;2.90;1.60;;;25.30;92.70;;;;;;4973865;28;20058;-66
2022/07/29 07:00:51;;;;;;;5.00;1.80;;;25.40;92.20;;;;;;4973368;28;20105;-67
2022/07/29 07:03:17;;;;;;;5.72;1.80;;;25.60;91.80;;;;;;4972581;28;20443;-67
2022/07/29 07:05:44;;;;;;;5.03;1.65;;;25.70;91.70;;;;;;4973538;28;20098;-67
2022/07/29 07:08:10;;;;;;;3.75;1.60;;;26.00;90.90;;;;;;4973600;28;20030;-67
2022/07/29 07:10:36;;;;;;;2.17;1.70;;;26.00;90.70;;;;;;4973521;28;20035;-67
2022/07/29 07:13:02;;;;;;;4.20;1.67;;;26.00;90.60;;;;;;4973141;28;20587;-67
2022/07/29 07:15:28;;;;;;;3.75;1.80;;;26.00;90.40;;;;;;4972570;28;20015;-67
2022/07/29 07:17:53;;;;;;;4.63;1.65;;;26.10;90.50;;;;;;4972359;28;20361;-68
2022/07/29 07:20:19;;;;;;;6.68;2.13;;;25.90;90.30;;;;;;4972218;28;20027;-67
2022/07/29 07:22:45;;;;;;;5.32;1.73;;;26.00;90.30;;;;;;4973481;28;20161;-67
2022/07/29 07:25:11;;;;;;;5.38;1.60;;;26.20;90.10;;;;;;4977052;28;20022;-70
2022/07/29 07:27:37;;;;;;;4.30;1.65;;;26.20;89.80;;;;;;4976787;28;20101;-70
2022/07/29 07:30:06;;;;;;;2.28;1.73;;;26.00;90.10;;;;;;4977017;28;20023;-68
2022/07/29 07:32:32;;;;;;;4.43;1.85;;;25.70;90.10;;;;;;4976860;28;20038;-67
2022/07/29 07:34:58;;;;;;;2.33;1.45;;;25.40;90.70;;;;;;4977029;28;20085;-67
2022/07/29 07:37:25;;;;;;;3.85;1.73;;;25.30;90.80;;;;;;4976711;28;20022;-67
2022/07/29 07:39:51;;;;;;;6.45;1.80;;;25.20;91.10;;;;;;4975816;28;20027;-66
2022/07/29 07:42:17;;;;;;;8.40;1.77;;;24.90;91.20;;;;;;4973779;28;20054;-67
2022/07/29 07:44:43;;;;;;;3.70;1.80;;;24.80;91.50;;;;;;4973782;28;20353;-70
2022/07/29 07:47:08;;;;;;;7.57;1.95;;;24.70;91.80;;;;;;4973901;28;20050;-72
2022/07/29 07:49:34;;;;;;;3.85;1.75;;;24.50;91.90;;;;;;4975770;28;20382;-66
2022/07/29 07:52:00;;;;;;;7.75;1.80;;;24.30;92.20;;;;;;4976258;28;20023;-68
2022/07/29 07:54:26;;;;;;;8.93;2.10;;;24.10;92.70;;;;;;4976264;28;20030;-70
2022/07/29 07:56:51;;;;;;;3.55;1.80;;;23.90;93.20;;;;;;4976451;28;20018;-66
2022/07/29 07:59:17;;;;;;;3.08;1.85;;;23.80;93.30;;;;;;4976157;28;20037;-67
2022/07/29 08:01:43;;;;;;;4.50;1.77;;;23.90;93.30;;;;;;4976396;28;20026;-66
2022/07/29 08:04:08;;;;;;;6.07;1.80;;;24.10;93.00;;;;;;4976346;28;20061;-67
2022/07/29 08:06:35;;;;;;;6.40;1.77;;;24.40;92.50;;;;;;4976028;28;20038;-69
2022/07/29 08:09:03;;;;;;;5.75;1.92;;;24.70;92.10;;;;;;4975896;28;20110;-67
2022/07/29 08:11:28;;;;;;;7.63;2.10;;;25.10;91.10;;;;;;4975942;28;20019;-70
2022/07/29 08:13:54;;;;;;;4.45;1.80;;;25.50;90.80;;;;;;4974881;28;20023;-67
2022/07/29 08:16:20;;;;;;;4.43;1.80;;;25.90;90.20;;;;;;4976508;28;20049;-67
2022/07/29 08:18:46;;;;;;;3.30;1.90;;;26.30;90.00;;;;;;4976213;28;20035;-70
2022/07/29 08:21:13;;;;;;;3.85;1.73;;;26.90;88.90;;;;;;4976806;28;20103;-69
2022/07/29 08:23:39;;;;;;;4.40;1.83;;;27.60;86.60;;;;;;4976017;28;20531;-67
2022/07/29 08:26:10;;;;;;;3.75;1.80;;;28.30;84.60;;;;;;4975545;28;20071;-68
2022/07/29 08:28:40;;;;;;;6.28;1.90;;;29.20;83.00;;;;;;4976244;28;20053;-69
2022/07/29 08:31:06;;;;;;;5.68;1.75;;;30.10;81.00;;;;;;4975442;28;20035;-69
2022/07/29 08:33:32;;;;;;;4.35;2.13;;;30.80;79.40;;;;;;4976015;28;20019;-68
2022/07/29 08:35:58;;;;;;;4.47;1.77;;;31.90;78.70;;;;;;4975522;28;20031;-68
2022/07/29 08:38:25;;;;;;;4.88;2.15;;;32.80;75.30;;;;;;4975363;28;20372;-68
2022/07/29 08:40:52;;;;;;;8.50;2.20;;;32.80;74.50;;;;;;4975157;28;20425;-68
2022/07/29 08:43:18;;;;;;;5.85;2.13;;;32.50;74.50;;;;;;4975281;28;20058;-68
2022/07/29 08:45:46;;;;;;;6.63;2.20;;;32.20;74.20;;;;;;4974629;28;20368;-70
2022/07/29 08:48:12;;;;;;;5.07;1.90;;;31.80;74.50;;;;;;4969680;28;20090;-70
2022/07/29 08:50:40;;;;;;;4.32;1.90;;;31.80;74.50;;;;;;4955681;28;20106;-69
2022/07/29 08:53:10;;;;;;;6.72;2.03;;;31.70;74.90;;;;;;4955876;28;20043;-68
2022/07/29 08:55:36;;;;;;;4.65;2.10;;;31.50;74.30;;;;;;4964868;28;20070;-68
2022/07/29 08:58:02;;;;;;;4.95;2.03;;;31.20;73.70;;;;;;4974874;28;21086;-66
2022/07/29 09:00:29;;;;;;;5.10;2.03;;;31.10;73.10;;;;;;4975028;28;20026;-67
2022/07/29 09:02:58;;;;;;;5.70;2.17;;;30.80;73.60;;;;;;4974712;28;20023;-67
2022/07/29 09:05:25;;;;;;;6.93;2.10;;;30.60;74.30;;;;;;4974377;28;20461;-71
2022/07/29 09:07:51;;;;;;;3.30;1.80;;;30.30;74.60;;;;;;4974699;28;20063;-67
2022/07/29 09:10:17;;;;;;;4.28;1.83;;;30.00;74.90;;;;;;4974228;28;20023;-67
2022/07/29 09:12:43;;;;;;;2.92;2.00;;;29.70;75.50;;;;;;4974094;28;20085;-68
2022/07/29 09:15:09;;;;;;;4.13;2.17;;;29.40;74.70;;;;;;4974672;28;20023;-68
2022/07/29 09:17:42;;;;;;;4.68;2.08;;;29.20;76.00;;;;;;4974477;28;20110;-68
2022/07/29 09:20:17;;;;;;;4.63;2.13;;;29.00;76.40;;;;;;4974302;28;20160;-71
2022/07/29 09:22:42;;;;;;;5.72;2.15;;;29.10;77.00;;;;;;4974562;28;20029;-68
2022/07/29 09:25:11;;;;;;;4.72;1.90;;;29.30;76.60;;;;;;4974595;28;20031;-67
2022/07/29 09:27:36;;;;;;;7.32;2.47;;;29.40;76.20;;;;;;4974317;28;20043;-67
2022/07/29 09:30:07;;;;;;;6.20;2.45;;;29.30;76.20;;;;;;4974190;28;20089;-68
2022/07/29 09:32:53;;;;;;;8.50;2.72;;;29.00;76.60;;;;;;4973796;28;20031;-67
2022/07/29 09:35:24;;;;;;;5.43;2.20;;;28.80;77.30;;;;;;4973255;28;20445;-69
2022/07/29 09:37:50;;;;;;;7.50;2.35;;;28.60;77.70;;;;;;4973146;28;20026;-66
2022/07/29 09:40:27;;;;;;;3.88;2.03;;;28.50;78.90;;;;;;4973711;28;20027;-68
2022/07/29 09:42:56;;;;;;;6.45;2.10;;;28.50;78.70;;;;;;4973736;28;20031;-70
2022/07/29 09:45:33;;;;;;;6.78;2.15;;;28.50;78.40;;;;;;4973841;28;20033;-68
2022/07/29 09:48:12;;;;;;;4.05;1.85;;;28.70;78.30;;;;;;4973423;28;20379;-67
2022/07/29 09:50:42;;;;;;;4.30;2.08;;;28.90;77.10;;;;;;4973140;28;20015;-67
2022/07/29 09:53:11;;;;;;;7.28;2.33;;;29.00;76.40;;;;;;4972853;28;20030;-68
2022/07/29 09:55:50;;;;;;;4.22;2.35;;;28.80;77.10;;;;;;4973572;28;20464;-67
2022/07/29 09:58:20;;;;;;;7.80;2.25;;;28.70;77.10;;;;;;4973680;28;20034;-70
2022/07/29 10:00:48;;;;;;;7.87;3.37;;;28.40;77.50;;;;;;4973670;28;20027;-68
2022/07/29 10:03:15;;;;;;;5.22;2.30;;;28.20;78.00;;;;;;4973864;28;20022;-71
2022/07/29 10:05:41;;;;;;;5.88;2.80;;;28.10;78.50;;;;;;4973599;28;20031;-67
2022/07/29 10:08:09;;;;;;;3.15;2.00;;;27.90;78.00;;;;;;4973699;28;20417;-67
2022/07/29 10:10:37;;;;;;;7.88;3.15;;;27.90;78.50;;;;;;4973684;28;20042;-67
2022/07/29 10:13:05;;;;;;;7.18;2.42;;;28.20;78.30;;;;;;4972173;28;20035;-68
2022/07/29 10:15:32;;;;;;;5.25;2.28;;;28.40;76.30;;;;;;4972040;28;20035;-67
2022/07/29 10:17:59;;;;;;;5.32;2.15;;;28.60;76.20;;;;;;4973241;28;20019;-70
2022/07/29 10:20:27;;;;;;;8.18;3.22;;;28.80;75.30;;;;;;4973311;28;20026;-68
2022/07/29 10:22:54;;;;;;;8.15;3.28;;;28.90;75.40;;;;;;4972599;28;20168;-69
2022/07/29 10:25:20;;;;;;;5.75;2.40;;;28.90;75.40;;;;;;4973481;28;20063;-67
2022/07/29 10:27:48;;;;;;;7.57;2.85;;;28.90;75.10;;;;;;4972255;28;20105;-68
2022/07/29 10:30:15;;;;;;;5.55;2.70;;;28.70;75.70;;;;;;4973783;28;20023;-68
2022/07/29 10:32:44;;;;;;;5.68;2.83;;;28.50;76.10;;;;;;4972524;28;20030;-68
2022/07/29 10:35:53;;;;;;;5.88;2.10;;;28.40;76.70;;;;;;4971066;28;20784;-67
2022/07/29 10:39:05;;;;;;;5.75;2.30;;;28.60;76.50;;;;;;4962028;28;20043;-67
2022/07/29 10:41:42;;;;;;;8.27;3.08;;;28.90;76.40;;;;;;4951676;29;20067;-68
2022/07/29 10:44:28;;;;;;;7.60;1.92;;;29.40;75.50;;;;;;4971120;28;20026;-68
2022/07/29 10:46:55;;;;;;;10.88;3.05;;;30.10;75.40;;;;;;4971509;28;20388;-67
2022/07/29 10:49:21;;;;;;;7.50;2.10;;;30.90;74.10;;;;;;4971916;28;20118;-70
2022/07/29 10:52:03;;;;;;;8.25;2.47;;;31.50;73.00;;;;;;4973374;28;20026;-70
2022/07/29 10:54:48;;;;;;;6.30;2.60;;;31.90;71.40;;;;;;4973108;28;20042;-67
2022/07/29 10:57:21;;;;;;;5.13;2.28;;;31.90;71.60;;;;;;4972700;28;20457;-67
2022/07/29 10:59:49;;;;;;;4.40;2.00;;;32.40;70.50;;;;;;4977227;28;20019;-68
2022/07/29 11:02:33;;;;;;;5.25;1.70;;;33.20;69.50;;;;;;4977191;28;20054;-70
2022/07/29 11:04:59;;;;;;;4.60;2.10;;;34.00;67.70;;;;;;4977326;28;20023;-67
2022/07/29 11:07:26;;;;;;;6.22;1.90;;;34.40;66.70;;;;;;4976000;28;20038;-70
2022/07/29 11:10:17;;;;;;;4.85;2.08;;;34.90;65.80;;;;;;4976948;28;20034;-67
2022/07/29 11:12:43;;;;;;;4.68;2.15;;;35.50;64.40;;;;;;4976243;28;20026;-66
2022/07/29 11:15:20;;;;;;;5.60;1.92;;;35.40;63.90;;;;;;4976262;28;20019;-68
2022/07/29 11:17:52;;;;;;;5.55;2.20;;;35.00;62.70;;;;;;4976835;28;20031;-67
2022/07/29 11:20:36;;;;;;;;;;;34.90;63.10;;;;;;4977091;28;20031;-66
2022/07/29 11:23:27;;;;;;;6.50;2.15;;;35.40;62.60;;;;;;4977134;28;19906;-67
2022/07/29 11:26:19;;;;;;;2.88;1.65;;;36.10;61.30;;;;;;4977181;28;20027;-68
2022/07/29 11:29:03;;;;;;;6.28;2.20;;;36.70;60.30;;;;;;4977160;28;20039;-66
2022/07/29 11:31:36;;;;;;;3.92;1.98;;;36.90;59.30;;;;;;4976526;28;20062;-69
2022/07/29 11:34:25;;;;;;;10.40;2.33;;;37.00;59.40;;;;;;4976758;28;20097;-66
2022/07/29 11:37:09;;;;;;;4.97;2.03;;;37.10;59.20;;;;;;4976805;28;20154;-68
2022/07/29 11:39:36;;;;;;;3.50;1.83;;;37.30;58.50;;;;;;4976024;28;20030;-67
2022/07/29 11:42:16;;;;;;;5.75;2.03;;;37.10;57.70;;;;;;4976837;28;20039;-71
2022/07/29 11:45:00;;;;;;;7.70;2.30;;;36.80;58.10;;;;;;4976893;28;20045;-67
2022/07/29 11:47:30;;;;;;;4.78;1.88;;;36.70;57.80;;;;;;4976355;28;20308;-68
2022/07/29 11:49:57;;;;;;;5.10;2.00;;;37.00;57.50;;;;;;4976952;28;20038;-68
2022/07/29 11:52:23;;;;;;;4.80;1.90;;;36.90;57.90;;;;;;4976668;28;20029;-67
2022/07/29 11:54:50;;;;;;;6.25;1.92;;;36.80;58.60;;;;;;4973610;28;20110;-67
2022/07/29 11:57:17;;;;;;;4.75;2.15;;;36.70;58.20;;;;;;4976605;28;20483;-66
2022/07/29 11:59:44;;;;;;;5.13;1.90;;;36.80;58.20;;;;;;4976480;28;20019;-68
2022/07/29 12:02:11;;;;;;;7.05;1.90;;;37.20;57.00;;;;;;4976358;28;20022;-67
2022/07/29 12:04:53;;;;;;;5.32;2.05;;;37.20;56.40;;;;;;4976157;28;20077;-67
2022/07/29 12:07:29;;;;;;;4.82;2.20;;;37.30;55.80;;;;;;4972222;28;20077;-69
2022/07/29 12:09:54;;;;;;;4.32;2.13;;;37.40;56.00;;;;;;4975166;28;20022;-66
2022/07/29 12:12:21;;;;;;;7.03;2.42;;;37.70;55.30;;;;;;4976054;28;20015;-69
2022/07/29 12:14:47;;;;;;;6.30;1.80;;;37.90;55.10;;;;;;4976074;28;20465;-67
2022/07/29 12:17:31;;;;;;;4.35;1.90;;;38.30;54.90;;;;;;4976216;28;20042;-70
2022/07/29 12:19:58;;;;;;;6.60;2.30;;;38.50;54.50;;;;;;4975969;28;20050;-66
2022/07/29 12:22:33;;;;;;;3.45;1.70;;;38.70;54.00;;;;;;4976135;28;20015;-67
2022/07/29 12:25:04;;;;;;;6.35;2.10;;;38.70;53.40;;;;;;4976043;28;20098;-69
2022/07/29 12:27:31;;;;;;;5.63;2.13;;;38.60;53.30;;;;;;4975520;28;20495;-67
2022/07/29 12:30:02;;;;;;;4.82;1.67;;;38.60;53.20;;;;;;4975613;28;20404;-67
2022/07/29 12:32:35;;;;;;;5.40;2.13;;;38.40;53.60;;;;;;4975902;28;20037;-67
2022/07/29 12:35:07;;;;;;;4.10;1.98;;;38.20;53.30;;;;;;4975980;28;20102;-69
2022/07/29 12:37:35;;;;;;;7.38;2.13;;;38.20;53.50;;;;;;4975830;28;20049;-67
2022/07/29 12:40:01;;;;;;;4.05;1.65;;;38.50;53.50;;;;;;4975587;28;20030;-67
2022/07/29 12:42:27;;;;;;;4.65;1.60;;;38.80;53.00;;;;;;4975638;28;20046;-67
2022/07/29 12:44:52;;;;;;;7.22;1.67;;;39.10;52.40;;;;;;4975619;28;20153;-67
2022/07/29 12:47:19;;;;;;;7.07;1.70;;;39.00;51.60;;;;;;4975244;28;20050;-70
2022/07/29 12:49:46;;;;;;;5.72;1.67;;;38.70;50.60;;;;;;4975706;28;20023;-70
2022/07/29 12:52:24;;;;;;;4.30;1.80;;;38.40;50.40;;;;;;4974168;28;20057;-68
2022/07/29 12:54:50;;;;;;;6.32;1.83;;;37.90;51.50;;;;;;4973777;28;20029;-68
2022/07/29 12:57:16;;;;;;;5.20;1.65;;;37.30;51.40;;;;;;4974096;28;20034;-69
2022/07/29 12:59:41;;;;;;;7.78;2.10;;;37.00;51.50;;;;;;4974028;28;20026;-71
2022/07/29 13:02:07;;;;;;;6.75;2.00;;;36.60;52.80;;;;;;4975416;28;20090;-69